Data for 10/29/2016

Time Sea-Level Adjusted Pressure Absolute Pressure Temperature Relative Humidity Dew Point   
(mb) (inHg) (mb) (inHg) (C) (F) (%) (C) (F)
00:05 1018 30.06 847 25.01 6.1 43.1 85 3.8 38.8
00:10 1018 30.06 847 25.01 6.2 43.1 84 3.7 38.6
00:15 1018 30.06 847 25.01 6.3 43.3 84 3.7 38.7
00:20 1018 30.06 847 25.01 6.3 43.4 83 3.6 38.5
00:25 1018 30.06 847 25.01 6.3 43.4 83 3.6 38.4
00:30 1018 30.06 847 25.01 6.3 43.3 83 3.7 38.7
00:35 1018 30.06 847 25.01 6.3 43.3 84 3.7 38.7
00:40 1018 30.06 847 25.01 6.2 43.2 85 3.8 38.9
00:45 1018 30.06 847 25.01 6.2 43.2 84 3.8 38.8
00:50 1018 30.06 847 25.01 6.3 43.3 83 3.7 38.6
00:55 1018 30.06 847 25.01 6.3 43.4 85 4 39.1
01:00 1018 30.06 847 25.01 6.3 43.3 84 3.7 38.7
01:05 1018 30.06 847 25.01 6.3 43.3 85 3.9 39
01:10 1018 30.06 847 25.01 6.2 43.2 84 3.7 38.6
01:15 1018 30.06 847 25.01 6.2 43.1 83 3.5 38.4
01:20 1018 30.06 847 25.01 6.1 43.1 84 3.6 38.4
01:25 1018 30.06 847 25.01 6.1 42.9 83 3.4 38.1
01:30 1018 30.06 847 25.01 6 42.8 84 3.5 38.3
01:35 1018 30.06 847 25.01 6 42.7 83 3.4 38.1
01:40 1018 30.06 847 25.01 5.9 42.6 83 3.2 37.7
01:45 1018 30.06 847 25.01 5.9 42.7 82 3.1 37.6
01:50 1018 30.06 847 25.01 6 42.8 81 2.9 37.3
01:55 1018 30.06 847 25.01 5.9 42.7 82 3.1 37.7
02:00 1018 30.06 847 25.01 5.9 42.6 81 2.9 37.3
02:05 1018 30.06 847 25.01 5.9 42.6 80 2.7 36.8
02:10 1018 30.06 847 25.01 5.9 42.7 81 2.9 37.2
02:15 1018 30.06 847 25.01 5.8 42.5 81 2.9 37.3
02:20 1018 30.06 847 25.01 5.9 42.5 80 2.7 36.8
02:25 1018 30.06 847 25.01 5.9 42.5 80 2.7 36.8
02:30 1018 30.06 847 25.01 5.8 42.5 80 2.6 36.8
02:35 1018 30.06 847 25.01 5.8 42.4 81 2.7 36.9
02:40 1018 30.06 847 25.01 5.8 42.4 81 2.7 36.9
02:45 1018 30.06 847 25.01 5.7 42.3 80 2.6 36.7
02:50 1018 30.06 847 25.01 5.7 42.3 81 2.8 37
02:55 1018 30.06 847 25.01 5.6 42.2 82 2.8 37
03:00 1018 30.06 847 25.01 5.6 42.1 82 2.7 36.9
03:05 1018 30.06 848 25.04 5.6 42.2 81 2.7 36.9
03:10 1018 30.06 848 25.04 5.6 42.1 82 2.8 37
03:15 1018 30.06 848 25.04 5.6 42.1 79 2.3 36.2
03:20 1018 30.06 848 25.04 5.6 42.1 80 2.5 36.5
03:25 1018 30.06 848 25.04 5.5 41.9 81 2.6 36.7
03:30 1018 30.06 848 25.04 5.4 41.7 82 2.5 36.6
03:35 1018 30.06 848 25.04 5.4 41.6 81 2.4 36.2
03:40 1019 30.09 848 25.04 5.3 41.5 82 2.4 36.3
03:45 1019 30.09 848 25.04 5.2 41.3 81 2.2 36
03:50 1019 30.09 848 25.04 5.1 41.3 81 2.1 35.8
03:55 1019 30.09 848 25.04 5.1 41.1 81 2.1 35.9
04:00 1019 30.09 848 25.04 5 41 81 2 35.6
04:05 1019 30.09 848 25.04 4.9 40.7 81 1.9 35.5
04:10 1019 30.09 848 25.04 4.8 40.6 82 1.9 35.5
04:15 1019 30.09 848 25.04 4.7 40.4 83 2 35.6
04:20 1019 30.09 848 25.04 4.6 40.2 82 1.8 35.3
04:25 1019 30.09 848 25.04 4.5 40 81 1.5 34.7
04:30 1019 30.09 848 25.04 4.3 39.8 83 1.7 35.1
04:35 1019 30.09 848 25.04 4.2 39.6 84 1.7 35.1
04:40 1019 30.09 848 25.04 4.2 39.6 84 1.7 35
04:45 1019 30.09 848 25.04 4.2 39.6 84 1.8 35.2
04:50 1019 30.09 848 25.04 4.2 39.6 83 1.6 35
04:55 1019 30.09 848 25.04 4.2 39.6 82 1.4 34.5
05:00 1019 30.09 849 25.07 4.2 39.6 82 1.5 34.6
05:05 1019 30.09 849 25.07 4.1 39.5 82 1.4 34.6
05:10 1020 30.12 849 25.07 4.1 39.3 83 1.4 34.5
05:15 1020 30.12 849 25.07 4 39.2 84 1.5 34.7
05:20 1020 30.12 849 25.07 4 39.2 83 1.3 34.4
05:25 1020 30.12 849 25.07 4 39.1 84 1.5 34.7
05:30 1020 30.12 849 25.07 3.9 38.9 84 1.5 34.6
05:35 1020 30.12 849 25.07 3.8 38.8 84 1.3 34.3
05:40 1020 30.12 849 25.07 3.8 38.8 84 1.2 34.2
05:45 1020 30.12 849 25.07 3.7 38.7 85 1.4 34.5
05:50 1020 30.12 849 25.07 3.7 38.6 84 1.3 34.3
05:55 1020 30.12 849 25.07 3.6 38.5 83 1.1 33.9
06:00 1020 30.12 849 25.07 3.6 38.4 84 1.1 33.9
06:05 1020 30.12 849 25.07 3.5 38.3 84 1.1 34
06:10 1020 30.12 849 25.07 3.5 38.3 83 0.9 33.7
06:15 1020 30.12 849 25.07 3.5 38.3 83 0.9 33.5
06:20 1020 30.12 849 25.07 3.5 38.3 83 0.9 33.5
06:25 1020 30.12 849 25.07 3.5 38.2 83 0.9 33.6
06:30 1020 30.12 849 25.07 3.4 38.1 83 0.8 33.4
06:35 1020 30.12 849 25.07 3.4 38.1 83 0.7 33.3
06:40 1020 30.12 849 25.07 3.4 38.1 82 0.6 33.1
06:45 1020 30.12 849 25.07 3.4 38.1 81 0.5 32.8
06:50 1020 30.12 849 25.07 3.4 38.1 82 0.6 33.1
06:55 1020 30.12 849 25.07 3.4 38 81 0.5 32.9
07:00 1020 30.12 849 25.07 3.3 38 81 0.4 32.7
07:05 1020 30.12 850 25.1 3.3 38 81 0.3 32.6
07:10 1020 30.12 850 25.1 3.3 38 82 0.5 32.9
07:15 1020 30.12 850 25.1 3.3 37.9 81 0.4 32.7
07:20 1020 30.12 850 25.1 3.3 37.9 82 0.4 32.8
07:25 1021 30.15 850 25.1 3.3 38 82 0.5 32.8
07:30 1021 30.15 850 25.1 3.3 37.9 81 0.4 32.7
07:35 1021 30.15 850 25.1 3.3 38 82 0.5 32.9
07:40 1021 30.15 850 25.1 3.4 38.1 81 0.4 32.7
07:45 1021 30.15 850 25.1 3.4 38.1 81 0.4 32.8
07:50 1020 30.12 850 25.1 3.3 38 81 0.4 32.7
07:55 1020 30.12 850 25.1 3.3 38 82 0.6 33.1
08:00 1020 30.12 850 25.1 3.3 37.9 83 0.7 33.2
08:05 1021 30.15 850 25.1 3.2 37.7 84 0.7 33.3
08:10 1021 30.15 850 25.1 3.1 37.7 84 0.7 33.3
08:15 1021 30.15 850 25.1 3.2 37.8 83 0.7 33.2
08:20 1021 30.15 850 25.1 3.3 38 84 0.8 33.4
08:25 1021 30.15 850 25.1 3.2 37.7 85 0.9 33.6
08:30 1021 30.15 850 25.1 3.2 37.7 85 0.8 33.5
08:35 1021 30.15 850 25.1 3.3 37.9 84 0.8 33.4
08:40 1021 30.15 850 25.1 3.3 38 83 0.8 33.4
08:45 1021 30.15 850 25.1 3.3 38 84 0.9 33.5
08:50 1021 30.15 850 25.1 3.3 38 84 0.8 33.5
08:55 1021 30.15 850 25.1 3.4 38 83 0.8 33.5
09:00 1021 30.15 850 25.1 3.3 38 83 0.8 33.4
09:05 1021 30.15 851 25.13 3.3 38 84 0.9 33.7
09:10 1021 30.15 851 25.13 3.3 38 84 0.9 33.6
09:15 1022 30.18 851 25.13 3.4 38.1 83 0.9 33.6
09:20 1022 30.18 851 25.13 3.4 38.2 84 1 33.7
09:25 1022 30.18 851 25.13 3.6 38.4 83 1 33.8
09:30 1022 30.18 851 25.13 3.8 38.8 83 1.1 34
09:35 1022 30.18 851 25.13 3.8 38.8 82 1.1 34
09:40 1022 30.18 851 25.13 3.8 38.8 82 1 33.9
09:45 1022 30.18 851 25.13 3.8 38.8 83 1.1 33.9
09:50 1022 30.18 851 25.13 3.8 38.8 81 0.9 33.6
09:55 1022 30.18 851 25.13 3.9 39.1 81 1 33.8
10:00 1022 30.18 851 25.13 4 39.3 80 0.9 33.7
10:05 1022 30.18 851 25.13 4.3 39.7 80 1 33.9
10:10 1022 30.18 851 25.13 4.5 40.1 78 1 33.8
10:15 1022 30.18 851 25.13 4.5 40 78 0.9 33.6
10:20 1022 30.18 851 25.13 4.6 40.3 77 0.9 33.7
10:25 1022 30.18 851 25.13 4.7 40.5 77 1 33.8
10:30 1022 30.18 851 25.13 4.5 40 78 0.9 33.6
10:35 1022 30.18 851 25.13 4.6 40.3 77 0.9 33.6
10:40 1022 30.18 851 25.13 5 40.9 75 0.9 33.6
10:45 1022 30.18 851 25.13 5 41.1 75 1 33.7
10:50 1021 30.15 851 25.13 5.2 41.4 75 1.1 34
10:55 1021 30.15 851 25.13 5.8 42.5 73 1.3 34.4
11:00 1021 30.15 851 25.13 5.9 42.5 72 1.3 34.3
11:05 1022 30.18 851 25.13 5.7 42.3 73 1.2 34.2
11:10 1022 30.18 851 25.13 5.8 42.4 71 1 33.8
11:15 1021 30.15 851 25.13 5.8 42.4 73 1.3 34.4
11:20 1022 30.18 851 25.13 5.7 42.3 74 1.5 34.6
11:25 1022 30.18 851 25.13 5.9 42.6 74 1.7 35.1
11:30 1021 30.15 851 25.13 5.8 42.4 74 1.5 34.8
11:35 1021 30.15 851 25.13 5.9 42.5 73 1.5 34.7
11:40 1022 30.18 851 25.13 6.3 43.3 72 1.6 34.9
11:45 1022 30.18 851 25.13 6.2 43.2 72 1.5 34.7
11:50 1022 30.18 851 25.13 6.3 43.3 72 1.5 34.8
11:55 1021 30.15 851 25.13 6.6 43.9 71 1.8 35.2
12:00 1021 30.15 851 25.13 6.9 44.4 70 1.7 35.1
12:05 1021 30.15 850 25.1 6.7 44 69 1.4 34.6
12:10 1021 30.15 850 25.1 6.6 43.9 69 1.4 34.5
12:15 1021 30.15 850 25.1 7 44.6 68 1.6 34.9
12:20 1021 30.15 850 25.1 7 44.7 67 1.3 34.3
12:25 1021 30.15 850 25.1 7.3 45.2 67 1.6 34.8
12:30 1021 30.15 850 25.1 7.3 45.1 68 1.8 35.3
12:35 1021 30.15 850 25.1 7.1 44.8 68 1.7 35
12:40 1021 30.15 850 25.1 6.9 44.3 68 1.4 34.6
12:45 1021 30.15 850 25.1 6.8 44.3 68 1.4 34.6
12:50 1021 30.15 850 25.1 7.2 44.9 67 1.4 34.6
12:55 1021 30.15 850 25.1 7.8 46 66 1.8 35.3
13:00 1021 30.15 850 25.1 7.5 45.5 67 1.7 35.1
13:05 1021 30.15 850 25.1 7.6 45.7 64 1.3 34.3
13:10 1021 30.15 850 25.1 8.1 46.5 63 1.5 34.8
13:15 1021 30.15 850 25.1 8.1 46.6 65 1.9 35.4
13:20 1021 30.15 850 25.1 8 46.3 64 1.6 34.8
13:25 1021 30.15 850 25.1 8.2 46.7 64 1.9 35.4
13:30 1021 30.15 850 25.1 8.3 46.9 64 1.9 35.4
13:35 1021 30.15 850 25.1 8.6 47.5 64 2.1 35.9
13:40 1021 30.15 850 25.1 8.7 47.6 62 1.8 35.3
13:45 1021 30.15 850 25.1 8.6 47.5 63 2 35.6
13:50 1021 30.15 850 25.1 8.7 47.7 61 1.6 34.9
13:55 1021 30.15 850 25.1 8.8 47.8 63 2.1 35.9
14:00 1021 30.15 850 25.1 8.6 47.5 63 1.9 35.4
14:05 1021 30.15 850 25.1 8.8 47.8 62 1.9 35.4
14:10 1021 30.15 850 25.1 9 48.2 62 2 35.7
14:15 1021 30.15 850 25.1 8.8 47.9 62 2 35.6
14:20 1021 30.15 850 25.1 9.1 48.5 61 2.1 35.8
14:25 1021 30.15 850 25.1 9.2 48.5 62 2.3 36.1
14:30 1021 30.15 850 25.1 9.1 48.4 62 2.3 36.1
14:35 1020 30.12 850 25.1 9.5 49.1 60 2.2 36
14:40 1020 30.12 850 25.1 9.4 49 62 2.6 36.8
14:45 1020 30.12 850 25.1 9.1 48.3 63 2.4 36.4
14:50 1020 30.12 850 25.1 9.2 48.5 62 2.3 36.2
14:55 1020 30.12 850 25.1 9.1 48.4 62 2.2 36
15:00 1020 30.12 850 25.1 8.7 47.6 66 2.7 36.9
15:05 1020 30.12 850 25.1 8.8 47.8 65 2.7 36.8
15:10 1020 30.12 850 25.1 8.8 47.9 65 2.7 36.8
15:15 1020 30.12 849 25.07 9 48.1 66 3 37.4
15:20 1020 30.12 849 25.07 9 48.3 66 3 37.3
15:25 1020 30.12 849 25.07 9 48.2 66 3 37.3
15:30 1020 30.12 849 25.07 9.3 48.8 66 3.3 38
15:35 1020 30.12 849 25.07 9.7 49.4 64 3.2 37.8
15:40 1020 30.12 849 25.07 9.7 49.5 64 3.3 37.9
15:45 1020 30.12 849 25.07 9.7 49.4 66 3.6 38.5
15:50 1020 30.12 849 25.07 9.5 49.2 66 3.5 38.2
15:55 1020 30.12 849 25.07 9.5 49.1 67 3.8 38.8
16:00 1020 30.12 849 25.07 9.1 48.4 68 3.6 38.4
16:05 1020 30.12 849 25.07 9.2 48.5 69 3.7 38.7
16:10 1020 30.12 849 25.07 9.1 48.3 69 3.7 38.6
16:15 1020 30.12 849 25.07 9.1 48.3 69 3.8 38.8
16:20 1020 30.12 849 25.07 9.1 48.4 70 3.8 38.9
16:25 1020 30.12 849 25.07 9.1 48.4 69 3.8 38.9
16:30 1020 30.12 849 25.07 9.2 48.5 69 3.9 39
16:35 1020 30.12 849 25.07 9.1 48.4 69 3.8 38.9
16:40 1020 30.12 849 25.07 9.3 48.7 69 4 39.1
16:45 1020 30.12 849 25.07 9.5 49 68 3.9 39.1
16:50 1020 30.12 849 25.07 9.5 49.1 69 4.1 39.3
16:55 1020 30.12 849 25.07 9.4 49 69 4 39.2
17:00 1020 30.12 849 25.07 9.5 49 69 4.1 39.4
17:05 1020 30.12 849 25.07 9.3 48.7 69 4 39.2
17:10 1020 30.12 849 25.07 9.3 48.7 69 4 39.1
17:15 1020 30.12 849 25.07 9.3 48.7 69 3.9 39.1
17:20 1020 30.12 849 25.07 9.2 48.6 69 4 39.1
17:25 1020 30.12 849 25.07 9.2 48.6 69 3.9 39.1
17:30 1020 30.12 849 25.07 9.2 48.6 69 3.9 39.1
17:35 1020 30.12 849 25.07 9.2 48.5 70 4.1 39.3
17:40 1020 30.12 849 25.07 9.1 48.4 70 4 39.2
17:45 1020 30.12 849 25.07 9.1 48.4 71 4.1 39.4
17:50 1020 30.12 849 25.07 9.1 48.3 70 4 39.2
17:55 1020 30.12 849 25.07 8.8 47.8 72 4 39.2
18:00 1020 30.12 849 25.07 8.7 47.7 72 3.9 39.1
18:05 1020 30.12 849 25.07 8.6 47.5 72 3.9 39.1
18:10 1020 30.12 849 25.07 8.5 47.3 73 4 39.2
18:15 1020 30.12 849 25.07 8.4 47.2 74 4.1 39.3
18:20 1020 30.12 849 25.07 8.3 47 73 3.9 39
18:25 1020 30.12 849 25.07 8.4 47 73 3.9 39
18:30 1020 30.12 849 25.07 8.3 46.9 74 4 39.1
18:35 1020 30.12 849 25.07 8.1 46.6 75 3.9 39.1
18:40 1020 30.12 849 25.07 8 46.4 75 3.9 38.9
18:45 1020 30.12 849 25.07 7.9 46.3 75 3.7 38.7
18:50 1020 30.12 849 25.07 7.9 46.2 75 3.7 38.6
18:55 1020 30.12 849 25.07 7.9 46.2 75 3.7 38.7
19:00 1020 30.12 849 25.07 7.8 46.1 75 3.6 38.5
19:05 1020 30.12 849 25.07 7.8 46.1 75 3.7 38.6
19:10 1020 30.12 849 25.07 7.7 45.9 75 3.7 38.6
19:15 1020 30.12 849 25.07 7.7 45.9 75 3.5 38.4
19:20 1020 30.12 849 25.07 7.8 46 75 3.6 38.4
19:25 1020 30.12 849 25.07 7.7 45.9 75 3.6 38.5
19:30 1020 30.12 849 25.07 7.6 45.8 76 3.8 38.8
19:35 1020 30.12 849 25.07 7.5 45.4 77 3.7 38.7
19:40 1020 30.12 849 25.07 7.4 45.4 76 3.5 38.4
19:45 1020 30.12 849 25.07 7.5 45.4 76 3.5 38.2
19:50 1020 30.12 849 25.07 7.5 45.4 76 3.5 38.3
19:55 1020 30.12 849 25.07 7.3 45.2 76 3.4 38.2
20:00 1020 30.12 849 25.07 7.2 45 77 3.4 38.1
20:05 1020 30.12 849 25.07 7.2 44.9 76 3.2 37.8
20:10 1020 30.12 849 25.07 7.3 45.1 75 3.1 37.5
20:15 1020 30.12 849 25.07 7.4 45.4 73 3 37.4
20:20 1020 30.12 849 25.07 7.6 45.8 71 2.7 36.8
20:25 1020 30.12 849 25.07 7.9 46.2 69 2.7 36.8
20:30 1020 30.12 849 25.07 8.2 46.8 64 2 35.5
20:35 1020 30.12 849 25.07 8.9 48 63 2.2 36
20:40 1020 30.12 849 25.07 8.9 48 61 1.9 35.3
20:45 1020 30.12 849 25.07 9.4 48.9 59 1.7 35.1
20:50 1020 30.12 849 25.07 9.4 49 61 2.3 36.2
20:55 1020 30.12 849 25.07 9.2 48.6 59 1.5 34.8
21:00 1020 30.12 849 25.07 9.4 49 60 2.1 35.8
21:05 1020 30.12 849 25.07 9.2 48.6 59 1.5 34.8
21:10 1020 30.12 849 25.07 9.5 49.1 57 1.6 34.8
21:15 1020 30.12 849 25.07 9.3 48.8 60 1.9 35.4
21:20 1020 30.12 849 25.07 9.3 48.8 58 1.6 34.9
21:25 1020 30.12 849 25.07 9.5 49 58 1.6 34.8
21:30 1020 30.12 849 25.07 9.5 49.1 58 1.7 35.1
21:35 1020 30.12 849 25.07 9.2 48.6 60 1.8 35.3
21:40 1020 30.12 849 25.07 9 48.1 61 1.8 35.2
21:45 1020 30.12 849 25.07 9 48.2 60 1.6 34.9
21:50 1020 30.12 849 25.07 9.1 48.4 60 1.7 35
21:55 1020 30.12 849 25.07 9.1 48.3 58 1.3 34.3
22:00 1020 30.12 849 25.07 9.1 48.4 58 1.3 34.3
22:05 1020 30.12 849 25.07 9.4 48.9 57 1.2 34.2
22:10 1020 30.12 849 25.07 9.1 48.4 59 1.7 35
22:15 1020 30.12 849 25.07 8.8 47.8 60 1.4 34.6
22:20 1020 30.12 849 25.07 8.5 47.3 61 1.5 34.7
22:25 1020 30.12 849 25.07 8.2 46.8 62 1.3 34.4
22:30 1020 30.12 849 25.07 8 46.5 60 0.8 33.5
22:35 1020 30.12 849 25.07 8.1 46.6 62 1.2 34.2
22:40 1020 30.12 849 25.07 7.7 45.9 63 1.2 34.1
22:45 1020 30.12 849 25.07 7.7 45.8 63 1.1 34.1
22:50 1019 30.09 849 25.07 7.6 45.7 63 1.2 34.1
22:55 1019 30.09 849 25.07 7.9 46.1 62 1 33.7
23:00 1019 30.09 849 25.07 8 46.3 60 0.7 33.2
23:05 1019 30.09 848 25.04 8.2 46.8 60 0.8 33.5
23:10 1019 30.09 848 25.04 8 46.4 61 1 33.8
23:15 1019 30.09 848 25.04 8 46.5 60 0.8 33.4
23:20 1019 30.09 848 25.04 8.3 46.9 57 0.3 32.6
23:25 1019 30.09 848 25.04 8.5 47.2 58 0.6 33.1
23:30 1019 30.09 848 25.04 8.4 47.2 57 0.4 32.7
23:35 1019 30.09 848 25.04 8.6 47.5 57 0.5 33
23:40 1019 30.09 848 25.04 8.5 47.3 58 0.6 33.1
23:45 1019 30.09 848 25.04 8.5 47.2 57 0.4 32.7
23:50 1019 30.09 848 25.04 8.7 47.7 55 0.3 32.5
23:55 1019 30.09 848 25.04 9 48.2 54 0.3 32.6
24:00 1019 30.09 848 25.04 8.9 48 55 0.5 32.8